Terminal Aerodrome Forecast
Issued by NWS Melbourne, FL

Home | Current Version | Previous Version | Text Only | Print | Product List | Glossary On
Versions: 1 2 3 4 5 6 7 8 9 10 11 12 13
000
FTUS42 KMLB 230520
TAFDAB
TAF
KDAB 230520Z 2306/2406 04005KT P6SM SCT013 SCT020
     FM231400 05011KT P6SM SCT030
     FM231800 05014G22KT P6SM SCT035 SCT050
     FM240000 05014KT P6SM BKN060
     FM240200 06008KT P6SM BKN060=

USA.gov is the U.S. government's official web portal to all federal, state and local government web resources and services.